createdAt,value
2024-04-19T00:00:28.293Z,1047.00
2024-04-19T00:01:28.124Z,1046.00
2024-04-19T00:02:28.053Z,1057.00
2024-04-19T00:03:28.279Z,1055.00
2024-04-19T00:04:28.226Z,1062.00
2024-04-19T00:05:28.121Z,1062.00
2024-04-19T00:06:28.180Z,1056.00
2024-04-19T00:07:28.150Z,1063.00
2024-04-19T00:08:28.169Z,1053.00
2024-04-19T00:09:28.299Z,1067.00
2024-04-19T00:10:28.235Z,1053.00
2024-04-19T00:11:28.282Z,1066.00
2024-04-19T00:12:28.247Z,1049.00
2024-04-19T00:13:28.190Z,1073.00
2024-04-19T00:14:28.265Z,1058.00
2024-04-19T00:15:28.262Z,1053.00
2024-04-19T00:16:28.232Z,1057.00
2024-04-19T00:17:28.269Z,1063.00
2024-04-19T00:18:28.330Z,1053.00
2024-04-19T00:19:28.287Z,1064.00
2024-04-19T00:20:28.334Z,1062.00
2024-04-19T00:21:28.340Z,1063.00
2024-04-19T00:22:28.274Z,1068.00
2024-04-19T00:23:28.298Z,1068.00
2024-04-19T00:24:28.360Z,1063.00
2024-04-19T00:25:28.339Z,1064.00
2024-04-19T00:26:28.336Z,1069.00
2024-04-19T00:27:28.368Z,1072.00
2024-04-19T00:28:28.378Z,1067.00
2024-04-19T00:29:28.400Z,1076.00
2024-04-19T00:30:28.439Z,1069.00
2024-04-19T00:31:28.425Z,1063.00
2024-04-19T00:32:28.440Z,1073.00
2024-04-19T00:33:28.721Z,1071.00
2024-04-19T00:34:28.590Z,1067.00
2024-04-19T00:35:28.503Z,1068.00
2024-04-19T00:36:28.588Z,1070.00
2024-04-19T00:37:28.528Z,1078.00
2024-04-19T00:38:28.484Z,1066.00
2024-04-19T00:39:28.611Z,1073.00
2024-04-19T00:40:28.534Z,1063.00
2024-04-19T00:41:28.587Z,1072.00
2024-04-19T00:42:28.597Z,1063.00
2024-04-19T00:43:28.574Z,1062.00
2024-04-19T00:44:28.611Z,1072.00
2024-04-19T00:45:28.702Z,1078.00
2024-04-19T00:46:28.620Z,1076.00
2024-04-19T00:47:28.840Z,1082.00
2024-04-19T00:48:28.692Z,1068.00
2024-04-19T00:49:28.723Z,1080.00
2024-04-19T00:50:28.714Z,1066.00
2024-04-19T00:51:28.740Z,1080.00
2024-04-19T00:52:28.726Z,1070.00
2024-04-19T00:53:28.743Z,1070.00
2024-04-19T00:54:28.810Z,1060.00
2024-04-19T00:55:28.811Z,1083.00
2024-04-19T00:56:29.770Z,1081.00
2024-04-19T00:57:28.817Z,1069.00
2024-04-19T00:58:28.824Z,1076.00
2024-04-19T00:59:28.871Z,1073.00
2024-04-19T01:00:28.974Z,1082.00
2024-04-19T01:01:29.007Z,1082.00
2024-04-19T01:02:28.920Z,1084.00
2024-04-19T01:03:28.996Z,1086.00
2024-04-19T01:04:29.010Z,1075.00
2024-04-19T01:05:29.018Z,1070.00
2024-04-19T01:06:29.153Z,1069.00
2024-04-19T01:07:29.270Z,1082.00
2024-04-19T01:08:29.053Z,1075.00
2024-04-19T01:09:29.132Z,1077.00
2024-04-19T01:10:29.051Z,1066.00
2024-04-19T01:11:29.165Z,1075.00
2024-04-19T01:12:29.184Z,1087.00
2024-04-19T01:13:29.114Z,1085.00
2024-04-19T01:14:29.193Z,1066.00
2024-04-19T01:15:29.224Z,1087.00
2024-04-19T01:16:29.283Z,1071.00
2024-04-19T01:17:29.432Z,1087.00
2024-04-19T01:18:29.363Z,1078.00
2024-04-19T01:19:29.337Z,1063.00
2024-04-19T01:20:29.343Z,1078.00
2024-04-19T01:21:29.377Z,1085.00
2024-04-19T01:22:29.340Z,1080.00
2024-04-19T01:23:29.400Z,1078.00
2024-04-19T01:24:29.448Z,1094.00
2024-04-19T01:25:29.405Z,1086.00
2024-04-19T01:26:29.473Z,1091.00
2024-04-19T01:27:29.521Z,1087.00
2024-04-19T01:28:29.484Z,1071.00
2024-04-19T01:29:29.517Z,1081.00
2024-04-19T01:30:29.593Z,1088.00
2024-04-19T01:31:29.608Z,1085.00
2024-04-19T01:32:29.614Z,1085.00
2024-04-19T01:33:29.726Z,1085.00
2024-04-19T01:34:29.680Z,1082.00
2024-04-19T01:35:29.758Z,1091.00
2024-04-19T01:36:29.719Z,1088.00
2024-04-19T01:37:29.750Z,1089.00
2024-04-19T01:38:29.746Z,1074.00
2024-04-19T01:39:29.914Z,1085.00
2024-04-19T01:40:29.779Z,1089.00
2024-04-19T01:41:29.785Z,1075.00
2024-04-19T01:42:29.867Z,1088.00
2024-04-19T01:43:29.833Z,1086.00
2024-04-19T01:44:29.900Z,1075.00
2024-04-19T01:45:29.920Z,1087.00
2024-04-19T01:46:29.968Z,1091.00
2024-04-19T01:47:29.970Z,1085.00
2024-04-19T01:48:30.034Z,1089.00
2024-04-19T01:49:30.056Z,1082.00
2024-04-19T01:50:30.102Z,1087.00
2024-04-19T01:51:30.107Z,1086.00
2024-04-19T01:52:30.055Z,1086.00
2024-04-19T01:53:30.066Z,1083.00
2024-04-19T01:54:30.160Z,1094.00
2024-04-19T01:55:30.118Z,1091.00
2024-04-19T01:56:30.146Z,1094.00
2024-04-19T01:57:30.179Z,1081.00
2024-04-19T01:58:30.204Z,1087.00
2024-04-19T01:59:30.213Z,1088.00
2024-04-19T02:00:30.310Z,1092.00
2024-04-19T02:01:30.371Z,1088.00
2024-04-19T02:02:30.340Z,1087.00
2024-04-19T02:03:30.322Z,1095.00
2024-04-19T02:04:30.393Z,1089.00
2024-04-19T02:05:30.306Z,1083.00
2024-04-19T02:06:30.419Z,1087.00
2024-04-19T02:07:30.419Z,1096.00
2024-04-19T02:08:30.424Z,1091.00
2024-04-19T02:09:30.523Z,1089.00
2024-04-19T02:10:30.491Z,1086.00
2024-04-19T02:11:30.592Z,1084.00
2024-04-19T02:12:30.610Z,1088.00
2024-04-19T02:13:30.612Z,1084.00
2024-04-19T02:14:30.594Z,1089.00
2024-04-19T02:15:30.633Z,1092.00
2024-04-19T02:16:30.658Z,1097.00
2024-04-19T02:17:30.898Z,1097.00
2024-04-19T02:18:30.914Z,1098.00
2024-04-19T02:19:30.754Z,1087.00
2024-04-19T02:20:30.708Z,1087.00
2024-04-19T02:21:30.845Z,1088.00
2024-04-19T02:22:30.810Z,1095.00
2024-04-19T02:23:30.825Z,1097.00
2024-04-19T02:24:30.861Z,1094.00
2024-04-19T02:25:30.869Z,1094.00
2024-04-19T02:26:30.924Z,1096.00
2024-04-19T02:27:31.020Z,1097.00
2024-04-19T02:28:30.968Z,1103.00
2024-04-19T02:29:30.975Z,1090.00
2024-04-19T02:30:31.061Z,1090.00
2024-04-19T02:31:31.041Z,1094.00
2024-04-19T02:32:31.100Z,1094.00
2024-04-19T02:33:31.196Z,1096.00
2024-04-19T02:34:31.060Z,1091.00
2024-04-19T02:35:31.162Z,1095.00
2024-04-19T02:36:31.145Z,1091.00
2024-04-19T02:37:31.183Z,1077.00
2024-04-19T02:38:31.194Z,1096.00
2024-04-19T02:39:31.263Z,1095.00
2024-04-19T02:40:31.270Z,1085.00
2024-04-19T02:41:31.270Z,1092.00
2024-04-19T02:42:31.346Z,1097.00
2024-04-19T02:43:31.326Z,1089.00
2024-04-19T02:44:31.355Z,1088.00
2024-04-19T02:45:33.628Z,1091.00
2024-04-19T02:46:31.467Z,1106.00
2024-04-19T02:47:31.454Z,1105.00
2024-04-19T02:48:31.455Z,1096.00
2024-04-19T02:49:31.471Z,1095.00
2024-04-19T02:50:31.431Z,1094.00
2024-04-19T02:51:31.402Z,1095.00
2024-04-19T02:52:31.387Z,1100.00
2024-04-19T02:53:31.396Z,1094.00
2024-04-19T02:54:31.505Z,1094.00
2024-04-19T02:55:31.402Z,1104.00
2024-04-19T02:56:31.437Z,1092.00
2024-04-19T02:57:31.447Z,1098.00
2024-04-19T02:58:31.400Z,1102.00
2024-04-19T02:59:31.451Z,1100.00
2024-04-19T03:00:31.574Z,1107.00
2024-04-19T03:01:31.450Z,1098.00
2024-04-19T03:02:31.446Z,1104.00
2024-04-19T03:03:31.547Z,1093.00
2024-04-19T03:04:31.481Z,1101.00
2024-04-19T03:05:31.457Z,1093.00
2024-04-19T03:06:31.491Z,1087.00
2024-04-19T03:07:31.469Z,1103.00
2024-04-19T03:08:31.406Z,1093.00
2024-04-19T03:09:31.451Z,1098.00
2024-04-19T03:10:31.415Z,1103.00
2024-04-19T03:11:31.472Z,1110.00
2024-04-19T03:12:31.447Z,1100.00
2024-04-19T03:13:31.452Z,1099.00
2024-04-19T03:14:31.426Z,1099.00
2024-04-19T03:15:31.468Z,1091.00
2024-04-19T03:16:31.459Z,1086.00
2024-04-19T03:17:31.516Z,1105.00
2024-04-19T03:18:31.460Z,1098.00
2024-04-19T03:19:31.402Z,1094.00
2024-04-19T03:20:31.443Z,1094.00
2024-04-19T03:21:31.501Z,1097.00
2024-04-19T03:22:31.449Z,1101.00
2024-04-19T03:23:31.435Z,1086.00
2024-04-19T03:24:31.460Z,1093.00
2024-04-19T03:25:31.456Z,1090.00
2024-04-19T03:26:33.191Z,1107.00
2024-04-19T03:27:31.438Z,1107.00
2024-04-19T03:28:31.422Z,1101.00
2024-04-19T03:29:31.432Z,1102.00
2024-04-19T03:30:31.484Z,1095.00
2024-04-19T03:31:31.449Z,1096.00
2024-04-19T03:32:31.520Z,1097.00
2024-04-19T03:33:31.628Z,1104.00
2024-04-19T03:34:31.463Z,1107.00
2024-04-19T03:35:31.423Z,1105.00
2024-04-19T03:36:31.498Z,1102.00
2024-04-19T03:37:31.445Z,1104.00
2024-04-19T03:38:31.493Z,1106.00
2024-04-19T03:39:31.509Z,1093.00
2024-04-19T03:40:31.459Z,1111.00
2024-04-19T03:41:31.485Z,1102.00
2024-04-19T03:42:31.476Z,1103.00
2024-04-19T03:43:31.496Z,1098.00
2024-04-19T03:44:31.462Z,1104.00
2024-04-19T03:45:31.538Z,1106.00
2024-04-19T03:46:31.450Z,1089.00
2024-04-19T03:47:31.524Z,1117.00
2024-04-19T03:48:31.629Z,1101.00
2024-04-19T03:49:31.443Z,1094.00
2024-04-19T03:50:31.450Z,1105.00
2024-04-19T03:51:31.510Z,1099.00
2024-04-19T03:52:31.460Z,1103.00
2024-04-19T03:53:31.531Z,1097.00
2024-04-19T03:54:31.468Z,1103.00
2024-04-19T03:55:31.456Z,1106.00
2024-04-19T03:56:31.461Z,1104.00
2024-04-19T03:57:31.493Z,1105.00
2024-04-19T03:58:31.448Z,1100.00
2024-04-19T03:59:31.468Z,1100.00
2024-04-19T04:00:31.462Z,1093.00
2024-04-19T04:01:31.565Z,1093.00
2024-04-19T04:02:31.490Z,1105.00
2024-04-19T04:03:31.485Z,1112.00
2024-04-19T04:04:31.484Z,1104.00
2024-04-19T04:05:31.478Z,1101.00
2024-04-19T04:06:31.516Z,1104.00
2024-04-19T04:07:31.464Z,1103.00
2024-04-19T04:08:31.556Z,1092.00
2024-04-19T04:09:31.514Z,1083.00
2024-04-19T04:10:31.497Z,1073.00
2024-04-19T04:11:31.491Z,1065.00
2024-04-19T04:12:31.492Z,1050.00
2024-04-19T04:13:31.476Z,1041.00
2024-04-19T04:14:31.510Z,1031.00
2024-04-19T04:15:31.527Z,1026.00
2024-04-19T04:16:31.498Z,1012.00
2024-04-19T04:17:31.557Z,1012.00
2024-04-19T04:18:31.593Z,987.00
2024-04-19T04:19:31.461Z,976.00
2024-04-19T04:20:31.505Z,956.00
2024-04-19T04:21:31.501Z,949.00
2024-04-19T04:22:31.510Z,939.00
2024-04-19T04:23:31.516Z,940.00
2024-04-19T04:24:31.492Z,929.00
2024-04-19T04:25:31.482Z,914.00
2024-04-19T04:26:31.506Z,901.00
2024-04-19T04:27:31.569Z,906.00
2024-04-19T04:28:31.536Z,883.00
2024-04-19T04:29:31.593Z,888.00
2024-04-19T04:30:31.619Z,864.00
2024-04-19T04:31:31.510Z,864.00
2024-04-19T04:32:31.579Z,856.00
2024-04-19T04:33:31.568Z,857.00
2024-04-19T04:34:31.615Z,847.00
2024-04-19T04:35:31.652Z,849.00
2024-04-19T04:36:31.721Z,846.00
2024-04-19T04:37:31.755Z,846.00
2024-04-19T04:38:31.770Z,843.00
2024-04-19T04:39:39.099Z,600.00
2024-04-19T04:40:39.031Z,600.00
2024-04-19T04:41:39.037Z,600.00
2024-04-19T04:42:39.914Z,600.00
2024-04-19T04:43:39.062Z,600.00
2024-04-19T04:44:39.077Z,602.00
2024-04-19T04:45:39.125Z,601.00
2024-04-19T04:46:39.109Z,600.00
2024-04-19T04:47:39.207Z,606.00
2024-04-19T04:48:39.074Z,607.00
2024-04-19T04:49:39.070Z,600.00
2024-04-19T04:50:39.065Z,601.00
2024-04-19T04:51:39.062Z,603.00
2024-04-19T04:52:39.079Z,605.00
2024-04-19T04:53:39.051Z,600.00
2024-04-19T04:54:39.068Z,602.00
2024-04-19T04:55:39.052Z,604.00
2024-04-19T04:56:39.052Z,604.00
2024-04-19T04:57:39.782Z,602.00
2024-04-19T04:58:39.112Z,604.00
2024-04-19T04:59:39.067Z,605.00
2024-04-19T05:00:39.180Z,601.00
2024-04-19T05:01:39.088Z,603.00
2024-04-19T05:02:39.111Z,602.00
2024-04-19T05:03:39.106Z,607.00
2024-04-19T05:04:39.095Z,605.00
2024-04-19T05:05:39.056Z,603.00
2024-04-19T05:06:39.107Z,605.00
2024-04-19T05:07:39.082Z,602.00
2024-04-19T05:08:39.074Z,605.00
2024-04-19T05:09:39.180Z,606.00
2024-04-19T05:10:39.147Z,603.00
2024-04-19T05:11:39.226Z,603.00
2024-04-19T05:12:39.316Z,605.00
2024-04-19T05:13:39.273Z,600.00
2024-04-19T05:14:39.328Z,604.00
2024-04-19T05:15:39.409Z,602.00
2024-04-19T05:16:39.411Z,604.00
2024-04-19T05:17:39.555Z,605.00
2024-04-19T05:18:39.555Z,605.00
2024-04-19T05:19:39.585Z,606.00
2024-04-19T05:20:40.316Z,606.00
2024-04-19T05:21:39.706Z,607.00
2024-04-19T05:22:39.654Z,606.00
2024-04-19T05:23:39.762Z,604.00
2024-04-19T05:24:39.877Z,605.00
2024-04-19T05:25:39.806Z,604.00
2024-04-19T05:26:39.864Z,605.00
2024-04-19T05:27:39.951Z,606.00
2024-04-19T05:28:39.938Z,607.00
2024-04-19T05:29:39.970Z,610.00
2024-04-19T05:30:40.102Z,606.00
2024-04-19T05:31:40.227Z,605.00
2024-04-19T05:32:40.231Z,607.00
2024-04-19T05:33:40.271Z,600.00
2024-04-19T05:34:40.216Z,607.00
2024-04-19T05:35:40.319Z,605.00
2024-04-19T05:36:40.325Z,605.00
2024-04-19T05:37:40.357Z,609.00
2024-04-19T05:38:40.413Z,605.00
2024-04-19T05:39:40.742Z,608.00
2024-04-19T05:40:40.544Z,612.00
2024-04-19T05:41:40.605Z,614.00
2024-04-19T05:42:40.662Z,613.00
2024-04-19T05:43:40.665Z,611.00
2024-04-19T05:44:40.678Z,604.00
2024-04-19T05:45:40.728Z,602.00
2024-04-19T05:46:40.706Z,600.00
2024-04-19T05:47:40.760Z,600.00
2024-04-19T05:48:40.875Z,602.00
2024-04-19T05:49:40.786Z,602.00
2024-04-19T05:50:40.803Z,602.00
2024-04-19T05:51:40.875Z,601.00
2024-04-19T05:52:40.805Z,604.00
2024-04-19T05:53:40.863Z,600.00
2024-04-19T05:54:40.973Z,602.00
2024-04-19T05:55:41.282Z,600.00
2024-04-19T05:56:41.198Z,605.00
2024-04-19T05:57:41.102Z,609.00
2024-04-19T05:58:41.069Z,606.00
2024-04-19T05:59:41.187Z,608.00
2024-04-19T06:00:41.338Z,614.00
2024-04-19T06:01:43.292Z,611.00
2024-04-19T06:02:41.411Z,609.00
2024-04-19T06:03:41.499Z,610.00
2024-04-19T06:04:41.408Z,613.00
2024-04-19T06:05:41.559Z,616.00
2024-04-19T06:06:41.777Z,614.00
2024-04-19T06:07:41.736Z,616.00
2024-04-19T06:08:41.643Z,616.00
2024-04-19T06:09:41.773Z,619.00
2024-04-19T06:10:41.817Z,625.00
2024-04-19T06:11:42.195Z,622.00
2024-04-19T06:12:41.873Z,627.00
2024-04-19T06:13:42.693Z,632.00
2024-04-19T06:14:41.901Z,631.00
2024-04-19T06:15:41.980Z,631.00
2024-04-19T06:16:42.217Z,632.00
2024-04-19T06:17:42.073Z,634.00
2024-04-19T06:18:42.379Z,634.00
2024-04-19T06:19:42.076Z,639.00
2024-04-19T06:20:42.063Z,645.00
2024-04-19T06:21:42.255Z,644.00
2024-04-19T06:22:42.186Z,651.00
2024-04-19T06:23:42.267Z,647.00
2024-04-19T06:24:42.213Z,648.00
2024-04-19T06:25:42.216Z,649.00
2024-04-19T06:26:42.282Z,652.00
2024-04-19T06:27:42.405Z,652.00
2024-04-19T06:28:42.238Z,656.00
2024-04-19T06:29:42.258Z,661.00
2024-04-19T06:30:42.749Z,662.00
2024-04-19T06:31:42.373Z,667.00
2024-04-19T06:32:42.382Z,665.00
2024-04-19T06:33:42.376Z,679.00
2024-04-19T06:34:42.334Z,690.00
2024-04-19T06:35:42.753Z,681.00
2024-04-19T06:36:42.416Z,676.00
2024-04-19T06:37:42.343Z,668.00
2024-04-19T06:38:43.333Z,667.00
2024-04-19T06:39:54.376Z,669.00
2024-04-19T06:40:43.701Z,669.00
2024-04-19T06:41:42.411Z,672.00
2024-04-19T06:42:42.431Z,678.00
2024-04-19T06:43:42.827Z,687.00
2024-04-19T06:44:42.387Z,709.00
2024-04-19T06:45:42.466Z,721.00
2024-04-19T06:46:42.411Z,731.00
2024-04-19T06:47:42.459Z,728.00
2024-04-19T06:48:42.900Z,739.00
2024-04-19T06:49:42.391Z,750.00
2024-04-19T06:50:42.784Z,756.00
2024-04-19T06:52:42.525Z,768.00
2024-04-19T06:53:42.601Z,783.00
2024-04-19T06:54:42.625Z,783.00
2024-04-19T06:55:42.704Z,797.00
2024-04-19T06:56:42.723Z,805.00
2024-04-19T06:57:42.877Z,818.00
2024-04-19T06:58:43.246Z,823.00
2024-04-19T06:59:42.964Z,829.00
2024-04-19T07:01:43.091Z,833.00
2024-04-19T07:02:43.520Z,835.00
2024-04-19T07:03:43.171Z,837.00
2024-04-19T07:04:43.181Z,847.00
2024-04-19T07:05:43.000Z,844.00
2024-04-19T07:06:45.079Z,850.00
2024-04-19T07:07:43.064Z,851.00
2024-04-19T07:08:43.096Z,851.00
2024-04-19T07:09:43.031Z,853.00
2024-04-19T07:10:43.013Z,861.00
2024-04-19T07:11:43.022Z,852.00
2024-04-19T07:12:43.244Z,852.00
2024-04-19T07:13:43.153Z,862.00
2024-04-19T07:14:43.135Z,852.00
2024-04-19T07:15:43.065Z,858.00
2024-04-19T07:16:43.095Z,855.00
2024-04-19T07:17:43.301Z,855.00
2024-04-19T07:18:43.237Z,848.00
2024-04-19T07:19:43.113Z,846.00
2024-04-19T07:20:43.021Z,850.00
2024-04-19T07:21:43.018Z,843.00
2024-04-19T07:22:43.065Z,834.00
2024-04-19T07:23:43.045Z,834.00
2024-04-19T07:24:43.306Z,821.00
2024-04-19T07:25:43.050Z,826.00
2024-04-19T07:26:43.025Z,816.00
2024-04-19T07:27:46.699Z,813.00
2024-04-19T07:28:43.004Z,813.00
2024-04-19T07:29:43.340Z,813.00
2024-04-19T07:30:43.083Z,814.00
2024-04-19T07:31:43.052Z,801.00
2024-04-19T07:32:43.274Z,792.00
2024-04-19T07:33:43.062Z,804.00
2024-04-19T07:34:43.050Z,803.00
2024-04-19T07:35:43.280Z,775.00
2024-04-19T07:36:43.059Z,756.00
2024-04-19T07:37:43.291Z,750.00
2024-04-19T07:38:43.078Z,738.00
2024-04-19T07:39:43.057Z,736.00
2024-04-19T07:40:43.030Z,723.00
2024-04-19T07:41:44.069Z,702.00
2024-04-19T07:42:43.130Z,721.00
2024-04-19T07:43:49.714Z,708.00
2024-04-19T07:44:44.043Z,694.00
2024-04-19T07:45:43.136Z,684.00
2024-04-19T07:46:43.260Z,688.00
2024-04-19T07:47:43.118Z,696.00
2024-04-19T07:48:45.821Z,687.00
2024-04-19T07:49:43.051Z,700.00
2024-04-19T07:50:43.066Z,694.00
2024-04-19T07:51:43.116Z,705.00
2024-04-19T07:52:43.234Z,708.00
2024-04-19T07:53:43.064Z,711.00
2024-04-19T07:54:43.069Z,708.00
2024-04-19T07:55:43.067Z,716.00
2024-04-19T07:56:43.176Z,713.00
2024-04-19T07:57:43.158Z,714.00
2024-04-19T07:58:43.247Z,711.00
2024-04-19T07:59:43.071Z,702.00
2024-04-19T08:00:43.243Z,701.00
2024-04-19T08:01:43.144Z,693.00
2024-04-19T08:02:43.127Z,690.00
2024-04-19T08:03:43.437Z,699.00
2024-04-19T08:04:43.214Z,686.00
2024-04-19T08:05:43.050Z,666.00
2024-04-19T08:06:43.337Z,663.00
2024-04-19T08:07:43.070Z,662.00
2024-04-19T08:08:44.762Z,663.00
2024-04-19T08:09:43.105Z,663.00
2024-04-19T08:10:43.097Z,664.00
2024-04-19T08:11:43.071Z,657.00
2024-04-19T08:12:43.111Z,659.00
2024-04-19T08:13:43.278Z,659.00
2024-04-19T08:14:43.870Z,655.00
2024-04-19T08:15:43.417Z,659.00
2024-04-19T08:16:43.173Z,660.00
2024-04-19T08:17:43.127Z,654.00
2024-04-19T08:18:43.353Z,658.00
2024-04-19T08:19:43.093Z,654.00
2024-04-19T08:20:43.113Z,653.00
2024-04-19T08:21:43.106Z,652.00
2024-04-19T08:22:43.047Z,651.00
2024-04-19T08:23:43.087Z,647.00
2024-04-19T08:24:43.171Z,649.00
2024-04-19T08:25:43.306Z,647.00
2024-04-19T08:26:43.080Z,640.00
2024-04-19T08:27:43.174Z,632.00
2024-04-19T08:28:43.092Z,636.00
2024-04-19T08:29:43.090Z,633.00
2024-04-19T08:30:43.348Z,639.00
2024-04-19T08:31:43.683Z,641.00
2024-04-19T08:32:43.155Z,640.00
2024-04-19T08:33:43.226Z,641.00
2024-04-19T08:34:43.289Z,632.00
2024-04-19T08:35:43.266Z,629.00
2024-04-19T08:36:43.279Z,630.00
2024-04-19T08:37:43.394Z,627.00
2024-04-19T08:38:43.401Z,624.00
2024-04-19T08:39:46.445Z,619.00
2024-04-19T08:40:43.463Z,618.00
2024-04-19T08:41:43.438Z,609.00
2024-04-19T08:42:43.463Z,600.00
2024-04-19T08:43:43.431Z,601.00
2024-04-19T08:44:44.295Z,599.00
2024-04-19T08:45:43.443Z,600.00
2024-04-19T08:46:43.502Z,600.00
2024-04-19T08:47:43.494Z,603.00
2024-04-19T08:48:43.527Z,603.00
2024-04-19T08:49:43.800Z,600.00
2024-04-19T08:50:43.441Z,602.00
2024-04-19T08:51:56.260Z,605.00
2024-04-19T08:53:08.710Z,605.00
2024-04-19T08:53:44.497Z,603.00
2024-04-19T08:54:43.983Z,605.00
2024-04-19T08:55:43.783Z,606.00
2024-04-19T08:56:43.508Z,606.00
2024-04-19T08:57:43.527Z,608.00
2024-04-19T08:58:49.841Z,611.00
2024-04-19T08:59:44.490Z,611.00
2024-04-19T09:00:43.910Z,613.00
2024-04-19T09:01:43.517Z,614.00
2024-04-19T09:02:44.052Z,615.00
2024-04-19T09:03:43.861Z,621.00
2024-04-19T09:04:43.530Z,616.00
2024-04-19T09:05:43.477Z,619.00
2024-04-19T09:06:43.507Z,619.00
2024-04-19T09:07:43.455Z,618.00
2024-04-19T09:08:43.474Z,621.00
2024-04-19T09:09:43.849Z,620.00
2024-04-19T09:10:43.517Z,623.00
2024-04-19T09:11:43.496Z,625.00
2024-04-19T09:12:43.635Z,628.00
2024-04-19T09:13:43.500Z,632.00
2024-04-19T09:14:43.809Z,632.00
2024-04-19T09:15:43.544Z,630.00
2024-04-19T09:16:43.573Z,633.00
2024-04-19T09:17:43.579Z,636.00
2024-04-19T09:18:43.514Z,628.00
2024-04-19T09:19:43.814Z,631.00
2024-04-19T09:20:43.803Z,630.00
2024-04-19T09:21:45.012Z,632.00
2024-04-19T09:22:43.502Z,637.00
2024-04-19T09:23:43.472Z,636.00
2024-04-19T09:24:43.884Z,641.00
2024-04-19T09:25:44.610Z,644.00
2024-04-19T09:26:43.488Z,644.00
2024-04-19T09:27:43.510Z,647.00
2024-04-19T09:28:43.562Z,647.00
2024-04-19T09:29:43.817Z,652.00
2024-04-19T09:30:43.714Z,654.00
2024-04-19T09:31:44.438Z,655.00
2024-04-19T09:32:43.970Z,653.00
2024-04-19T09:33:43.910Z,656.00
2024-04-19T09:34:43.888Z,658.00
2024-04-19T09:35:43.905Z,691.00
2024-04-19T09:36:43.940Z,707.00
2024-04-19T09:37:44.033Z,689.00
2024-04-19T09:38:43.993Z,694.00
2024-04-19T09:39:44.342Z,677.00
2024-04-19T09:40:44.886Z,663.00
2024-04-19T09:41:43.959Z,658.00
2024-04-19T09:42:45.043Z,655.00
2024-04-19T09:43:43.976Z,651.00
2024-04-19T09:44:44.338Z,640.00
2024-04-19T09:45:44.453Z,643.00
2024-04-19T09:46:44.141Z,636.00
2024-04-19T09:47:44.103Z,639.00
2024-04-19T09:48:44.513Z,638.00
2024-04-19T09:49:44.247Z,639.00
2024-04-19T09:50:44.170Z,640.00
2024-04-19T09:51:44.226Z,631.00
2024-04-19T09:52:44.162Z,627.00
2024-04-19T09:53:44.942Z,619.00
2024-04-19T09:54:44.265Z,623.00
2024-04-19T09:55:44.267Z,640.00
2024-04-19T09:56:44.258Z,634.00
2024-04-19T09:57:44.312Z,635.00
2024-04-19T09:58:44.889Z,648.00
2024-04-19T09:59:44.366Z,651.00
2024-04-19T10:00:44.498Z,656.00
2024-04-19T10:01:44.476Z,663.00
2024-04-19T10:02:44.568Z,662.00
2024-04-19T10:03:44.620Z,665.00
2024-04-19T10:04:44.607Z,664.00
2024-04-19T10:05:44.513Z,671.00
2024-04-19T10:06:45.436Z,681.00
2024-04-19T10:07:44.556Z,675.00
2024-04-19T10:08:44.550Z,692.00
2024-04-19T10:09:44.609Z,691.00
2024-04-19T10:10:44.879Z,691.00
2024-04-19T10:11:44.881Z,707.00
2024-04-19T10:12:44.689Z,709.00
2024-04-19T10:13:44.710Z,710.00
2024-04-19T10:14:44.736Z,722.00
2024-04-19T10:15:44.841Z,727.00
2024-04-19T10:16:44.826Z,728.00
2024-04-19T10:17:45.012Z,731.00
2024-04-19T10:18:45.174Z,740.00
2024-04-19T10:19:52.583Z,735.00
2024-04-19T10:20:46.062Z,735.00
2024-04-19T10:21:45.089Z,734.00
2024-04-19T10:22:45.063Z,731.00
2024-04-19T10:23:45.039Z,743.00
2024-04-19T10:24:45.118Z,753.00
2024-04-19T10:25:45.369Z,756.00
2024-04-19T10:26:45.253Z,733.00
2024-04-19T10:27:45.255Z,724.00
2024-04-19T10:28:45.201Z,724.00
2024-04-19T10:29:45.223Z,738.00
2024-04-19T10:30:45.230Z,742.00
2024-04-19T10:31:45.532Z,739.00
2024-04-19T10:32:45.294Z,730.00
2024-04-19T10:33:47.039Z,729.00
2024-04-19T10:34:45.390Z,720.00
2024-04-19T10:35:45.266Z,711.00
2024-04-19T10:36:45.371Z,706.00
2024-04-19T10:37:45.363Z,698.00
2024-04-19T10:38:45.308Z,695.00
2024-04-19T10:39:45.345Z,696.00
2024-04-19T10:40:45.421Z,677.00
2024-04-19T10:41:45.326Z,673.00
2024-04-19T10:42:45.404Z,666.00
2024-04-19T10:43:45.351Z,664.00
2024-04-19T10:44:45.351Z,663.00
2024-04-19T10:45:45.393Z,662.00
2024-04-19T10:46:45.411Z,658.00
2024-04-19T10:47:45.601Z,659.00
2024-04-19T10:48:45.433Z,656.00
2024-04-19T10:49:45.467Z,656.00
2024-04-19T10:50:45.407Z,653.00
2024-04-19T10:51:45.493Z,652.00
2024-04-19T10:52:45.449Z,647.00
2024-04-19T10:53:45.413Z,649.00
2024-04-19T10:54:46.762Z,643.00
2024-04-19T10:55:45.430Z,643.00
2024-04-19T10:56:45.435Z,644.00
2024-04-19T10:57:45.483Z,643.00
2024-04-19T10:58:45.425Z,642.00
2024-04-19T10:59:45.428Z,634.00
2024-04-19T11:00:45.476Z,629.00
2024-04-19T11:01:45.515Z,628.00
2024-04-19T11:02:45.481Z,626.00
2024-04-19T11:03:45.525Z,624.00
2024-04-19T11:04:45.622Z,624.00
2024-04-19T11:05:45.547Z,624.00
2024-04-19T11:06:45.602Z,619.00
2024-04-19T11:07:45.607Z,618.00
2024-04-19T11:08:45.573Z,615.00
2024-04-19T11:09:45.642Z,616.00
2024-04-19T11:10:45.587Z,607.00
2024-04-19T11:11:45.626Z,603.00
2024-04-19T11:12:45.651Z,603.00
2024-04-19T11:13:45.659Z,606.00
2024-04-19T11:14:45.702Z,603.00
2024-04-19T11:15:52.671Z,602.00
2024-04-19T11:16:46.694Z,602.00
2024-04-19T11:17:48.144Z,603.00
2024-04-19T11:18:45.802Z,602.00
2024-04-19T11:19:45.670Z,604.00
2024-04-19T11:20:50.500Z,608.00
2024-04-19T11:21:46.822Z,603.00
2024-04-19T11:22:45.674Z,606.00
2024-04-19T11:23:46.936Z,612.00
2024-04-19T11:24:45.703Z,620.00
2024-04-19T11:25:45.723Z,630.00
2024-04-19T11:26:45.675Z,632.00
2024-04-19T11:27:45.727Z,633.00
2024-04-19T11:28:45.719Z,638.00
2024-04-19T11:29:45.728Z,645.00
2024-04-19T11:30:45.769Z,651.00
2024-04-19T11:31:45.781Z,655.00
2024-04-19T11:32:45.803Z,657.00
2024-04-19T11:33:45.776Z,661.00
2024-04-19T11:34:45.759Z,663.00
2024-04-19T11:35:45.806Z,662.00
2024-04-19T11:36:45.823Z,661.00
2024-04-19T11:37:45.773Z,663.00
2024-04-19T11:38:45.830Z,674.00
2024-04-19T11:39:45.962Z,678.00
2024-04-19T11:40:45.841Z,683.00
2024-04-19T11:41:45.902Z,684.00
2024-04-19T11:42:45.928Z,687.00
2024-04-19T11:43:45.964Z,691.00
2024-04-19T11:44:45.866Z,698.00
2024-04-19T11:45:45.956Z,703.00
2024-04-19T11:46:45.880Z,700.00
2024-04-19T11:47:45.955Z,707.00
2024-04-19T11:48:45.961Z,713.00
2024-04-19T11:49:45.931Z,714.00
2024-04-19T11:50:45.908Z,724.00
2024-04-19T11:51:45.940Z,722.00
2024-04-19T11:52:46.028Z,723.00
2024-04-19T11:53:45.929Z,729.00
2024-04-19T11:54:45.991Z,722.00
2024-04-19T11:55:45.999Z,730.00
2024-04-19T11:56:45.947Z,733.00
2024-04-19T11:57:45.982Z,737.00
2024-04-19T11:58:45.955Z,745.00
2024-04-19T11:59:45.960Z,744.00
2024-04-19T12:00:46.120Z,739.00
2024-04-19T12:01:46.047Z,739.00
2024-04-19T12:02:46.038Z,737.00
2024-04-19T12:03:46.204Z,746.00
2024-04-19T12:04:46.248Z,748.00
2024-04-19T12:05:46.120Z,747.00
2024-04-19T12:06:46.129Z,747.00
2024-04-19T12:07:46.162Z,749.00
2024-04-19T12:08:46.201Z,750.00
2024-04-19T12:09:46.223Z,752.00
2024-04-19T12:10:46.232Z,761.00
2024-04-19T12:12:18.347Z,760.00
2024-04-19T12:14:33.168Z,761.00
2024-04-19T12:15:37.516Z,761.00
2024-04-19T12:16:20.504Z,761.00
2024-04-19T12:16:52.556Z,761.00
2024-04-19T12:17:47.457Z,762.00
2024-04-19T12:18:46.410Z,766.00
2024-04-19T12:19:46.471Z,772.00
2024-04-19T12:20:51.473Z,777.00
2024-04-19T12:22:53.600Z,765.00
2024-04-19T12:23:48.962Z,761.00
2024-04-19T12:25:46.961Z,768.00